createdAt,value
2023-02-24T00:00:33.751Z,7.70
2023-02-24T00:01:37.974Z,7.67
2023-02-24T00:02:41.023Z,7.13
2023-02-24T00:03:45.033Z,6.70
2023-02-24T00:04:51.757Z,7.53
2023-02-24T00:05:54.238Z,7.87
2023-02-24T00:06:57.272Z,6.70
2023-02-24T00:07:59.471Z,6.73
2023-02-24T00:09:02.483Z,7.17
2023-02-24T00:10:05.371Z,7.17
2023-02-24T00:11:10.457Z,7.47
2023-02-24T00:12:14.309Z,7.67
2023-02-24T00:13:22.288Z,6.47
2023-02-24T00:14:28.121Z,7.33
2023-02-24T00:15:30.538Z,7.57
2023-02-24T00:16:34.930Z,6.70
2023-02-24T00:17:38.643Z,6.87
2023-02-24T00:18:41.681Z,6.87
2023-02-24T00:19:43.835Z,6.73
2023-02-24T00:20:47.379Z,6.20
2023-02-24T00:21:51.412Z,7.47
2023-02-24T00:22:54.475Z,6.57
2023-02-24T00:23:59.363Z,6.97
2023-02-24T00:25:03.826Z,6.40
2023-02-24T00:26:07.059Z,7.03
2023-02-24T00:27:11.812Z,6.47
2023-02-24T00:28:14.497Z,7.57
2023-02-24T00:29:18.518Z,7.53
2023-02-24T00:30:21.442Z,7.63
2023-02-24T00:31:25.095Z,6.87
2023-02-24T00:32:30.186Z,6.70
2023-02-24T00:33:35.703Z,6.97
2023-02-24T00:34:38.260Z,7.73
2023-02-24T00:35:41.294Z,6.80
2023-02-24T00:36:43.307Z,6.63
2023-02-24T00:37:51.196Z,6.83
2023-02-24T00:38:55.790Z,6.90
2023-02-24T00:39:58.768Z,7.07
2023-02-24T00:41:02.438Z,6.70
2023-02-24T00:42:06.927Z,6.37
2023-02-24T00:43:11.283Z,6.90
2023-02-24T00:44:15.933Z,7.07
2023-02-24T00:45:18.099Z,7.40
2023-02-24T00:46:25.806Z,7.40
2023-02-24T00:47:28.085Z,6.80
2023-02-24T00:48:31.531Z,7.73
2023-02-24T00:49:36.130Z,7.90
2023-02-24T00:50:40.066Z,6.67
2023-02-24T00:51:46.094Z,7.63
2023-02-24T00:52:49.784Z,7.27
2023-02-24T00:53:56.006Z,6.97
2023-02-24T00:54:59.513Z,6.97
2023-02-24T00:56:07.184Z,7.50
2023-02-24T00:57:10.994Z,6.63
2023-02-24T00:58:13.775Z,6.60
2023-02-24T00:59:20.204Z,7.33
2023-02-24T01:00:23.454Z,6.40
2023-02-24T01:01:29.288Z,6.67
2023-02-24T01:02:32.134Z,6.93
2023-02-24T01:03:35.235Z,6.70
2023-02-24T01:04:39.986Z,7.10
2023-02-24T01:05:42.990Z,7.20
2023-02-24T01:06:47.078Z,6.93
2023-02-24T01:07:50.264Z,7.27
2023-02-24T01:08:54.380Z,6.70
2023-02-24T01:09:57.582Z,6.67
2023-02-24T01:11:19.092Z,6.80
2023-02-24T01:12:49.208Z,6.83
2023-02-24T01:13:52.845Z,6.70
2023-02-24T01:14:55.285Z,6.97
2023-02-24T01:16:02.277Z,6.77
2023-02-24T01:17:05.025Z,6.53
2023-02-24T01:18:08.052Z,7.43
2023-02-24T01:19:11.263Z,6.83
2023-02-24T01:20:19.515Z,7.43
2023-02-24T01:21:22.088Z,6.90
2023-02-24T01:22:25.435Z,6.93
2023-02-24T01:23:27.735Z,7.20
2023-02-24T01:24:33.961Z,7.47
2023-02-24T01:25:36.049Z,6.50
2023-02-24T01:26:39.094Z,7.20
2023-02-24T01:27:42.108Z,7.23
2023-02-24T01:28:48.043Z,6.23
2023-02-24T01:29:50.413Z,7.70
2023-02-24T01:30:54.127Z,6.53
2023-02-24T01:31:59.493Z,6.57
2023-02-24T01:33:03.513Z,7.17
2023-02-24T01:34:06.133Z,7.37
2023-02-24T01:35:11.797Z,6.73
2023-02-24T01:36:17.112Z,6.20
2023-02-24T01:37:20.996Z,6.57
2023-02-24T01:38:23.915Z,7.30
2023-02-24T01:39:28.259Z,7.23
2023-02-24T01:40:30.329Z,6.90
2023-02-24T01:41:33.470Z,6.83
2023-02-24T01:42:35.721Z,6.43
2023-02-24T01:44:01.906Z,6.53
2023-02-24T01:45:14.147Z,6.90
2023-02-24T01:46:17.629Z,6.90
2023-02-24T01:47:20.882Z,6.70
2023-02-24T01:48:25.266Z,7.27
2023-02-24T01:49:34.162Z,7.10
2023-02-24T01:50:38.929Z,6.67
2023-02-24T01:51:47.317Z,6.50
2023-02-24T01:52:56.095Z,6.80
2023-02-24T01:53:58.867Z,6.60
2023-02-24T01:55:07.166Z,7.63
2023-02-24T01:56:13.663Z,7.17
2023-02-24T01:57:20.404Z,6.87
2023-02-24T01:58:26.199Z,6.37
2023-02-24T01:59:31.797Z,6.57
2023-02-24T02:00:37.587Z,7.17
2023-02-24T02:01:42.993Z,6.90
2023-02-24T02:02:48.096Z,7.47
2023-02-24T02:03:52.266Z,7.10
2023-02-24T02:04:57.139Z,6.97
2023-02-24T02:06:04.384Z,6.90
2023-02-24T02:07:10.045Z,6.27
2023-02-24T02:08:14.865Z,6.80
2023-02-24T02:09:17.454Z,6.20
2023-02-24T02:10:20.929Z,6.20
2023-02-24T02:11:23.597Z,6.53
2023-02-24T02:12:27.922Z,6.67
2023-02-24T02:13:35.670Z,6.27
2023-02-24T02:14:43.080Z,6.70
2023-02-24T02:15:52.850Z,7.03
2023-02-24T02:17:10.740Z,7.60
2023-02-24T02:18:20.203Z,6.83
2023-02-24T02:19:49.547Z,7.57
2023-02-24T02:21:36.220Z,7.27
2023-02-24T02:23:00.874Z,6.13
2023-02-24T02:24:23.106Z,6.37
2023-02-24T02:25:39.027Z,6.33
2023-02-24T02:26:58.096Z,6.40
2023-02-24T02:28:32.567Z,6.90
2023-02-24T02:30:06.949Z,6.67
2023-02-24T02:31:50.788Z,6.07
2023-02-24T02:33:36.053Z,6.87
2023-02-24T02:34:51.401Z,6.50
2023-02-24T02:36:01.057Z,6.77
2023-02-24T02:37:08.231Z,5.53
2023-02-24T02:38:25.300Z,7.57
2023-02-24T02:39:39.246Z,6.27
2023-02-24T02:40:49.863Z,6.53
2023-02-24T02:41:56.206Z,6.87
2023-02-24T02:43:05.490Z,6.67
2023-02-24T02:44:11.963Z,6.40
2023-02-24T02:45:20.680Z,6.80
2023-02-24T02:46:34.815Z,5.57
2023-02-24T02:47:43.345Z,6.70
2023-02-24T02:48:52.576Z,6.87
2023-02-24T02:50:02.644Z,5.97
2023-02-24T02:51:07.728Z,6.20
2023-02-24T02:52:17.817Z,5.53
2023-02-24T02:53:26.377Z,5.93
2023-02-24T02:54:36.280Z,6.87
2023-02-24T02:55:42.729Z,6.53
2023-02-24T02:56:49.652Z,6.50
2023-02-24T02:57:55.253Z,6.30
2023-02-24T02:59:01.684Z,6.23
2023-02-24T03:00:11.377Z,6.73
2023-02-24T03:01:20.974Z,6.13
2023-02-24T03:02:29.739Z,6.57
2023-02-24T03:03:39.672Z,6.83
2023-02-24T03:04:44.032Z,6.97
2023-02-24T03:05:53.178Z,5.83
2023-02-24T03:07:00.756Z,6.47
2023-02-24T03:08:11.208Z,6.50
2023-02-24T03:09:19.238Z,6.20
2023-02-24T03:10:27.540Z,6.07
2023-02-24T03:11:32.474Z,7.13
2023-02-24T03:12:37.298Z,6.63
2023-02-24T03:13:45.513Z,5.93
2023-02-24T03:14:51.970Z,6.53
2023-02-24T03:15:56.328Z,6.40
2023-02-24T03:16:59.265Z,5.90
2023-02-24T03:18:10.231Z,5.97
2023-02-24T03:19:15.152Z,5.73
2023-02-24T03:20:23.577Z,6.20
2023-02-24T03:21:33.061Z,5.60
2023-02-24T03:22:43.387Z,5.57
2023-02-24T03:23:49.376Z,5.77
2023-02-24T03:24:53.672Z,5.90
2023-02-24T03:26:17.078Z,6.20
2023-02-24T03:27:26.278Z,5.83
2023-02-24T03:28:35.822Z,5.50
2023-02-24T03:29:44.543Z,6.07
2023-02-24T03:30:53.720Z,6.17
2023-02-24T03:32:00.745Z,5.80
2023-02-24T03:33:11.435Z,6.03
2023-02-24T03:34:18.840Z,5.17
2023-02-24T03:35:27.283Z,6.83
2023-02-24T03:36:33.061Z,5.57
2023-02-24T03:37:37.394Z,5.67
2023-02-24T03:38:41.679Z,5.87
2023-02-24T03:39:47.674Z,5.80
2023-02-24T03:40:56.558Z,5.80
2023-02-24T03:42:08.094Z,5.47
2023-02-24T03:43:16.870Z,5.27
2023-02-24T03:44:20.210Z,6.10
2023-02-24T03:45:23.149Z,5.17
2023-02-24T03:46:26.996Z,5.50
2023-02-24T03:47:30.261Z,6.83
2023-02-24T03:48:35.679Z,5.63
2023-02-24T03:49:38.419Z,5.23
2023-02-24T03:50:44.196Z,5.00
2023-02-24T03:52:14.066Z,5.20
2023-02-24T03:53:32.056Z,5.70
2023-02-24T03:54:49.977Z,5.50
2023-02-24T03:56:05.095Z,5.23
2023-02-24T03:57:27.774Z,5.27
2023-02-24T03:58:43.858Z,5.50
2023-02-24T03:59:53.009Z,5.83
2023-02-24T04:01:00.819Z,5.73
2023-02-24T04:02:10.473Z,6.33
2023-02-24T04:03:25.932Z,6.10
2023-02-24T04:04:38.893Z,5.07
2023-02-24T04:06:09.546Z,6.07
2023-02-24T04:07:16.330Z,5.37
2023-02-24T04:08:23.339Z,5.73
2023-02-24T04:09:33.213Z,5.60
2023-02-24T04:10:52.641Z,6.10
2023-02-24T04:12:09.133Z,5.30
2023-02-24T04:13:19.497Z,6.40
2023-02-24T04:14:31.722Z,5.70
2023-02-24T04:15:38.504Z,5.10
2023-02-24T04:16:49.192Z,5.53
2023-02-24T04:17:54.786Z,4.87
2023-02-24T04:19:04.409Z,5.40
2023-02-24T04:20:17.224Z,4.43
2023-02-24T04:21:28.534Z,4.80
2023-02-24T04:22:36.161Z,5.00
2023-02-24T04:23:43.256Z,4.97
2023-02-24T04:24:51.217Z,5.63
2023-02-24T04:25:56.294Z,5.30
2023-02-24T04:27:02.163Z,5.67
2023-02-24T04:28:10.444Z,5.37
2023-02-24T04:29:20.502Z,5.37
2023-02-24T04:30:26.338Z,5.47
2023-02-24T04:31:29.939Z,4.67
2023-02-24T04:32:34.326Z,4.67
2023-02-24T04:33:38.443Z,4.73
2023-02-24T04:34:42.428Z,5.33
2023-02-24T04:35:45.625Z,5.40
2023-02-24T04:36:49.550Z,5.10
2023-02-24T04:37:55.130Z,4.90
2023-02-24T04:38:58.490Z,5.23
2023-02-24T04:40:02.179Z,5.20
2023-02-24T04:41:05.962Z,4.90
2023-02-24T04:42:08.071Z,5.43
2023-02-24T04:43:11.219Z,5.07
2023-02-24T04:44:13.458Z,5.07
2023-02-24T04:45:18.558Z,5.00
2023-02-24T04:46:20.741Z,5.70
2023-02-24T04:47:23.808Z,5.57
2023-02-24T04:48:25.910Z,5.30
2023-02-24T04:49:28.987Z,5.83
2023-02-24T04:50:36.015Z,4.93
2023-02-24T04:51:42.344Z,5.53
2023-02-24T04:52:44.850Z,4.80
2023-02-24T04:53:51.615Z,4.97
2023-02-24T04:54:53.621Z,5.33
2023-02-24T04:55:57.186Z,4.80
2023-02-24T04:56:59.470Z,5.27
2023-02-24T04:58:02.858Z,5.30
2023-02-24T04:59:04.929Z,5.50
2023-02-24T05:00:20.772Z,5.30
2023-02-24T05:01:23.114Z,5.00
2023-02-24T05:02:26.194Z,4.90
2023-02-24T05:03:30.148Z,5.03
2023-02-24T05:04:38.769Z,4.80
2023-02-24T05:05:51.897Z,4.97
2023-02-24T05:06:57.347Z,4.43
2023-02-24T05:08:03.036Z,4.67
2023-02-24T05:09:14.122Z,4.60
2023-02-24T05:10:18.836Z,4.73
2023-02-24T05:11:22.246Z,4.97
2023-02-24T05:12:24.528Z,4.63
2023-02-24T05:13:31.651Z,4.73
2023-02-24T05:14:33.694Z,4.60
2023-02-24T05:15:41.662Z,4.73
2023-02-24T05:16:45.955Z,4.50
2023-02-24T05:17:51.518Z,4.80
2023-02-24T05:19:08.620Z,4.47
2023-02-24T05:20:30.053Z,3.50
2023-02-24T05:21:36.322Z,5.57
2023-02-24T05:22:38.362Z,4.60
2023-02-24T05:23:44.315Z,4.63
2023-02-24T05:24:48.033Z,4.60
2023-02-24T05:25:54.942Z,4.43
2023-02-24T05:26:58.477Z,4.67
2023-02-24T05:28:04.040Z,4.83
2023-02-24T05:29:07.670Z,5.03
2023-02-24T05:30:11.423Z,4.20
2023-02-24T05:31:16.092Z,4.90
2023-02-24T05:32:18.895Z,5.50
2023-02-24T05:33:22.791Z,4.47
2023-02-24T05:34:25.476Z,4.23
2023-02-24T05:35:29.604Z,4.60
2023-02-24T05:36:34.064Z,5.13
2023-02-24T05:37:42.011Z,4.70
2023-02-24T05:38:44.877Z,5.07
2023-02-24T05:39:49.219Z,5.07
2023-02-24T05:40:57.482Z,5.13
2023-02-24T05:42:06.116Z,4.27
2023-02-24T05:43:08.288Z,4.73
2023-02-24T05:44:15.673Z,4.70
2023-02-24T05:45:18.322Z,4.47
2023-02-24T05:46:28.100Z,4.63
2023-02-24T05:47:30.213Z,5.10
2023-02-24T05:48:35.094Z,4.90
2023-02-24T05:49:38.788Z,4.57
2023-02-24T05:50:46.000Z,4.80
2023-02-24T05:51:54.685Z,4.67
2023-02-24T05:52:57.995Z,4.70
2023-02-24T05:54:00.139Z,5.03
2023-02-24T05:55:07.281Z,4.63
2023-02-24T05:56:09.885Z,4.77
2023-02-24T05:57:17.023Z,4.43
2023-02-24T05:58:19.198Z,4.40
2023-02-24T05:59:22.225Z,4.60
2023-02-24T06:00:25.878Z,4.80
2023-02-24T06:01:30.277Z,4.80
2023-02-24T06:02:37.541Z,4.93
2023-02-24T06:03:46.603Z,4.83
2023-02-24T06:04:53.846Z,4.73
2023-02-24T06:05:59.208Z,4.70
2023-02-24T06:07:03.720Z,5.07
2023-02-24T06:08:05.900Z,4.50
2023-02-24T06:09:13.007Z,4.63
2023-02-24T06:10:17.179Z,4.60
2023-02-24T06:11:21.729Z,4.70
2023-02-24T06:12:27.290Z,4.93
2023-02-24T06:13:30.333Z,4.97
2023-02-24T06:14:34.145Z,4.43
2023-02-24T06:15:37.465Z,5.00
2023-02-24T06:16:43.467Z,4.17
2023-02-24T06:17:45.567Z,4.27
2023-02-24T06:18:50.528Z,4.10
2023-02-24T06:19:54.056Z,4.97
2023-02-24T06:20:57.094Z,4.60
2023-02-24T06:22:01.697Z,5.03
2023-02-24T06:23:05.337Z,4.70
2023-02-24T06:24:10.582Z,4.73
2023-02-24T06:25:13.862Z,4.40
2023-02-24T06:26:19.609Z,4.67
2023-02-24T06:27:24.757Z,4.60
2023-02-24T06:28:27.544Z,4.63
2023-02-24T06:29:31.541Z,4.40
2023-02-24T06:30:35.026Z,4.87
2023-02-24T06:31:38.312Z,4.40
2023-02-24T06:32:41.859Z,4.57
2023-02-24T06:33:44.004Z,4.47
2023-02-24T06:34:47.073Z,4.87
2023-02-24T06:35:49.146Z,4.60
2023-02-24T06:36:52.748Z,4.93
2023-02-24T06:37:55.817Z,4.83
2023-02-24T06:38:59.025Z,4.80
2023-02-24T06:40:01.478Z,4.90
2023-02-24T06:41:10.845Z,4.30
2023-02-24T06:42:14.398Z,5.27
2023-02-24T06:43:17.537Z,5.30
2023-02-24T06:44:19.889Z,5.20
2023-02-24T06:45:24.175Z,5.27
2023-02-24T06:46:26.594Z,4.50
2023-02-24T06:47:29.713Z,4.70
2023-02-24T06:48:33.827Z,5.07
2023-02-24T06:49:37.574Z,5.10
2023-02-24T06:50:42.090Z,4.77
2023-02-24T06:51:45.448Z,5.00
2023-02-24T06:52:48.059Z,5.70
2023-02-24T06:53:52.547Z,4.93
2023-02-24T06:54:54.606Z,4.53
2023-02-24T06:55:57.668Z,4.60
2023-02-24T06:56:59.778Z,4.67
2023-02-24T06:58:04.980Z,4.60
2023-02-24T06:59:07.128Z,4.23
2023-02-24T07:00:16.934Z,4.90
2023-02-24T07:01:22.223Z,4.73
2023-02-24T07:02:29.902Z,4.90
2023-02-24T07:03:40.088Z,4.47
2023-02-24T07:04:44.677Z,4.37
2023-02-24T07:05:50.221Z,4.50
2023-02-24T07:06:56.042Z,5.23
2023-02-24T07:07:58.144Z,5.63
2023-02-24T07:09:07.062Z,5.60
2023-02-24T07:10:10.433Z,5.10
2023-02-24T07:11:14.037Z,5.20
2023-02-24T07:12:20.967Z,5.30
2023-02-24T07:13:25.932Z,4.80
2023-02-24T07:14:31.301Z,5.23
2023-02-24T07:15:36.948Z,5.07
2023-02-24T07:16:42.686Z,4.67
2023-02-24T07:17:46.132Z,4.73
2023-02-24T07:18:50.392Z,4.67
2023-02-24T07:19:54.560Z,4.90
2023-02-24T07:21:05.061Z,4.90
2023-02-24T07:22:09.559Z,4.73
2023-02-24T07:23:13.784Z,4.97
2023-02-24T07:24:24.857Z,4.87
2023-02-24T07:25:33.380Z,4.17
2023-02-24T07:26:41.566Z,4.87
2023-02-24T07:27:43.788Z,4.37
2023-02-24T07:28:49.032Z,4.80
2023-02-24T07:29:53.271Z,4.97
2023-02-24T07:30:57.450Z,4.83
2023-02-24T07:32:01.591Z,5.07
2023-02-24T07:33:05.162Z,4.70
2023-02-24T07:34:07.207Z,5.37
2023-02-24T07:35:10.480Z,6.97
2023-02-24T07:36:14.868Z,4.90
2023-02-24T07:37:20.042Z,4.83
2023-02-24T07:38:22.999Z,4.40
2023-02-24T07:39:26.535Z,4.63
2023-02-24T07:40:28.953Z,5.70
2023-02-24T07:41:31.970Z,4.63
2023-02-24T07:42:36.361Z,4.60
2023-02-24T07:43:42.108Z,7.67
2023-02-24T07:44:49.084Z,6.10
2023-02-24T07:45:52.804Z,4.90
2023-02-24T07:46:56.702Z,4.73
2023-02-24T07:48:01.397Z,4.60
2023-02-24T07:49:04.869Z,4.57
2023-02-24T07:50:13.428Z,4.33
2023-02-24T07:51:19.400Z,5.03
2023-02-24T07:52:22.768Z,4.90
2023-02-24T07:53:27.570Z,4.73
2023-02-24T07:54:30.920Z,4.43
2023-02-24T07:55:35.914Z,4.73
2023-02-24T07:56:46.053Z,4.13
2023-02-24T07:57:49.248Z,5.00
2023-02-24T07:58:51.250Z,5.30
2023-02-24T07:59:55.676Z,5.37
2023-02-24T08:01:08.147Z,4.60
2023-02-24T08:02:11.595Z,5.10
2023-02-24T08:03:14.067Z,4.63
2023-02-24T08:04:18.822Z,4.90
2023-02-24T08:05:22.943Z,4.00
2023-02-24T08:06:37.693Z,5.00
2023-02-24T08:07:40.764Z,4.47
2023-02-24T08:08:57.833Z,5.30
2023-02-24T08:10:24.354Z,5.33
2023-02-24T08:11:35.491Z,4.50
2023-02-24T08:12:42.705Z,4.47
2023-02-24T08:13:45.016Z,4.43
2023-02-24T08:14:50.822Z,4.73
2023-02-24T08:15:57.648Z,4.90
2023-02-24T08:16:59.949Z,5.13
2023-02-24T08:18:03.193Z,5.03
2023-02-24T08:19:05.971Z,4.37
2023-02-24T08:20:22.496Z,4.70
2023-02-24T08:21:27.293Z,4.47
2023-02-24T08:22:37.216Z,4.63
2023-02-24T08:23:44.593Z,4.73
2023-02-24T08:24:50.135Z,4.60
2023-02-24T08:25:53.765Z,4.87
2023-02-24T08:27:04.326Z,5.10
2023-02-24T08:28:11.542Z,4.73
2023-02-24T08:29:14.845Z,4.93
2023-02-24T08:30:23.475Z,5.47
2023-02-24T08:31:28.115Z,4.60
2023-02-24T08:32:33.998Z,4.90
2023-02-24T08:33:37.425Z,4.93
2023-02-24T08:34:39.679Z,4.93
2023-02-24T08:35:44.709Z,4.27
2023-02-24T08:36:55.829Z,4.67
2023-02-24T08:38:04.181Z,4.90
2023-02-24T08:39:07.162Z,5.70
2023-02-24T08:40:32.303Z,4.37
2023-02-24T08:41:45.788Z,4.63
2023-02-24T08:42:50.114Z,5.20
2023-02-24T08:43:53.214Z,4.97
2023-02-24T08:44:55.297Z,4.80
2023-02-24T08:46:03.608Z,3.97
2023-02-24T08:47:10.688Z,4.90
2023-02-24T08:48:26.179Z,4.87
2023-02-24T08:49:29.289Z,5.43
2023-02-24T08:50:33.766Z,5.07
2023-02-24T08:51:43.711Z,4.67
2023-02-24T08:52:45.819Z,5.13
2023-02-24T08:53:53.103Z,5.00
2023-02-24T08:54:59.216Z,5.13
2023-02-24T08:56:09.515Z,5.37
2023-02-24T08:57:15.211Z,5.30
2023-02-24T08:58:18.455Z,4.63
2023-02-24T08:59:37.670Z,5.37
2023-02-24T09:00:49.070Z,5.07
2023-02-24T09:02:13.212Z,4.80
2023-02-24T09:03:28.030Z,4.83
2023-02-24T09:04:31.153Z,5.23
2023-02-24T09:05:33.734Z,4.77
2023-02-24T09:06:40.970Z,4.97
2023-02-24T09:07:44.404Z,5.40
2023-02-24T09:08:46.468Z,5.33
2023-02-24T09:09:50.185Z,4.80
2023-02-24T09:10:52.225Z,6.20
2023-02-24T09:11:57.359Z,5.90
2023-02-24T09:13:01.223Z,5.83
2023-02-24T09:14:04.809Z,5.50
2023-02-24T09:15:10.362Z,5.53
2023-02-24T09:16:16.451Z,6.17
2023-02-24T09:17:30.797Z,6.63
2023-02-24T09:18:39.283Z,5.70
2023-02-24T09:20:02.262Z,6.20
2023-02-24T09:21:33.090Z,6.17
2023-02-24T09:22:57.153Z,5.97
2023-02-24T09:24:03.456Z,6.00
2023-02-24T09:25:21.222Z,5.67
2023-02-24T09:26:24.385Z,6.30
2023-02-24T09:27:29.237Z,6.27
2023-02-24T09:28:48.479Z,6.37
2023-02-24T09:29:50.553Z,6.00
2023-02-24T09:30:55.241Z,6.73
2023-02-24T09:32:04.603Z,6.57
2023-02-24T09:33:17.718Z,6.07
2023-02-24T09:34:30.069Z,6.80
2023-02-24T09:35:36.599Z,6.80
2023-02-24T09:36:44.994Z,6.73
2023-02-24T09:37:47.053Z,6.63
2023-02-24T09:39:09.230Z,6.70
2023-02-24T09:40:40.188Z,7.27
2023-02-24T09:41:56.508Z,6.73
2023-02-24T09:42:58.879Z,7.00
2023-02-24T09:44:07.418Z,7.43
2023-02-24T09:45:19.192Z,7.37
2023-02-24T09:46:21.553Z,7.27
2023-02-24T09:47:40.753Z,7.70
2023-02-24T09:48:51.466Z,7.40
2023-02-24T09:49:59.072Z,7.20
2023-02-24T09:51:05.217Z,6.87
2023-02-24T09:52:16.996Z,6.83
2023-02-24T09:53:19.374Z,7.60
2023-02-24T09:54:24.547Z,7.37
2023-02-24T09:55:35.765Z,7.37
2023-02-24T09:56:42.902Z,8.17
2023-02-24T09:58:26.942Z,7.33
2023-02-24T09:59:40.789Z,8.47
2023-02-24T10:00:52.212Z,7.93
2023-02-24T10:02:02.833Z,8.20
2023-02-24T10:03:20.303Z,8.03
2023-02-24T10:04:53.817Z,7.30
2023-02-24T10:06:12.147Z,8.50
2023-02-24T10:07:17.927Z,8.33
2023-02-24T10:08:26.297Z,9.37
2023-02-24T10:09:34.655Z,9.73
2023-02-24T10:10:38.922Z,10.13
2023-02-24T10:11:53.502Z,9.73
2023-02-24T10:13:14.779Z,10.50
2023-02-24T10:14:19.505Z,9.23
2023-02-24T10:15:42.269Z,10.83
2023-02-24T10:16:58.795Z,9.13
2023-02-24T10:18:27.303Z,9.93
2023-02-24T10:19:34.349Z,11.50
2023-02-24T10:20:45.617Z,10.73
2023-02-24T10:22:02.684Z,11.27
2023-02-24T10:23:12.076Z,10.43
2023-02-24T10:24:22.896Z,10.53
2023-02-24T10:25:40.979Z,11.13
2023-02-24T10:26:59.986Z,11.43
2023-02-24T10:28:13.448Z,11.03
2023-02-24T10:29:29.509Z,11.57
2023-02-24T10:30:43.298Z,11.20
2023-02-24T10:31:48.015Z,11.43
2023-02-24T10:32:58.635Z,10.87
2023-02-24T10:34:06.143Z,11.40
2023-02-24T10:35:16.263Z,11.13
2023-02-24T10:36:25.890Z,10.47
2023-02-24T10:37:30.342Z,11.10
2023-02-24T10:38:34.112Z,10.80
2023-02-24T10:39:42.436Z,11.13
2023-02-24T10:40:46.977Z,10.77
2023-02-24T10:41:57.345Z,10.47
2023-02-24T10:43:10.589Z,10.00
2023-02-24T10:44:20.927Z,10.87
2023-02-24T10:45:26.332Z,9.97
2023-02-24T10:46:41.090Z,10.30
2023-02-24T10:47:46.402Z,9.17
2023-02-24T10:48:52.701Z,9.80
2023-02-24T10:49:58.951Z,10.73
2023-02-24T10:51:09.958Z,10.03
2023-02-24T10:52:33.319Z,10.07
2023-02-24T10:53:37.669Z,9.67
2023-02-24T10:55:05.068Z,9.73
2023-02-24T10:56:41.783Z,10.17
2023-02-24T10:57:58.687Z,9.90
2023-02-24T10:59:21.772Z,9.93
2023-02-24T11:00:41.796Z,9.97
2023-02-24T11:01:59.206Z,10.00
2023-02-24T11:03:08.438Z,8.40
2023-02-24T11:04:33.279Z,9.97
2023-02-24T11:06:04.167Z,9.17
2023-02-24T11:07:11.970Z,10.13
2023-02-24T11:08:36.452Z,9.27
2023-02-24T11:09:52.281Z,9.27
2023-02-24T11:10:58.774Z,9.53
2023-02-24T11:12:24.349Z,9.43
2023-02-24T11:13:45.641Z,9.37
2023-02-24T11:15:11.163Z,10.63
2023-02-24T11:16:31.502Z,9.37
2023-02-24T11:17:36.896Z,9.37
2023-02-24T11:18:40.824Z,10.13
2023-02-24T11:19:47.602Z,9.70
2023-02-24T11:20:55.214Z,10.77
2023-02-24T11:21:58.417Z,10.07
2023-02-24T11:23:05.094Z,9.87
2023-02-24T11:24:13.118Z,10.80
2023-02-24T11:25:25.182Z,10.73
2023-02-24T11:26:36.435Z,9.70
2023-02-24T11:27:42.941Z,9.83
2023-02-24T11:29:04.002Z,9.80
2023-02-24T11:30:16.522Z,9.37
2023-02-24T11:31:35.250Z,10.63
2023-02-24T11:33:04.258Z,10.40
2023-02-24T11:34:11.648Z,10.27
2023-02-24T11:35:23.203Z,10.20
2023-02-24T11:36:37.151Z,10.37
2023-02-24T11:37:43.379Z,11.07
2023-02-24T11:38:52.337Z,10.73
2023-02-24T11:40:00.541Z,11.57
2023-02-24T11:41:14.912Z,10.33
2023-02-24T11:42:24.369Z,10.83
2023-02-24T11:43:31.591Z,10.70
2023-02-24T11:44:39.190Z,11.47
2023-02-24T11:45:47.146Z,10.47
2023-02-24T11:46:52.148Z,10.37
2023-02-24T11:47:59.807Z,10.00
2023-02-24T11:49:08.681Z,9.87
2023-02-24T11:50:26.731Z,10.30
2023-02-24T11:51:33.905Z,9.20
2023-02-24T11:52:40.415Z,9.67
2023-02-24T11:53:49.990Z,10.40
2023-02-24T11:54:57.687Z,10.50
2023-02-24T11:56:03.667Z,10.30
2023-02-24T11:57:15.349Z,9.00
2023-02-24T11:58:23.287Z,9.87
2023-02-24T11:59:34.441Z,9.77
2023-02-24T12:00:41.045Z,8.80
2023-02-24T12:01:52.671Z,9.87
2023-02-24T12:03:03.957Z,9.40
2023-02-24T12:04:18.685Z,9.83
2023-02-24T12:05:25.218Z,11.03
2023-02-24T12:06:32.903Z,10.40
2023-02-24T12:07:40.573Z,10.57
2023-02-24T12:08:46.790Z,9.70
2023-02-24T12:09:58.285Z,10.17
2023-02-24T12:11:18.008Z,9.47
2023-02-24T12:12:28.995Z,10.07
2023-02-24T12:13:39.187Z,10.10
2023-02-24T12:14:47.834Z,10.27
2023-02-24T12:15:57.560Z,10.07
2023-02-24T12:17:10.508Z,10.63
2023-02-24T12:18:23.331Z,9.10
2023-02-24T12:19:33.164Z,10.83
2023-02-24T12:20:41.859Z,9.57
2023-02-24T12:21:49.227Z,10.23
2023-02-24T12:22:56.469Z,10.30
2023-02-24T12:23:59.367Z,11.07
2023-02-24T12:25:02.362Z,11.17
2023-02-24T12:26:16.871Z,10.17
2023-02-24T12:27:35.268Z,11.33
2023-02-24T12:29:10.701Z,10.97
2023-02-24T12:30:38.221Z,10.83
2023-02-24T12:31:54.431Z,9.53
2023-02-24T12:33:03.423Z,9.50
2023-02-24T12:34:11.989Z,9.53
2023-02-24T12:35:20.028Z,10.67
2023-02-24T12:36:34.274Z,10.37
2023-02-24T12:37:58.486Z,10.43
2023-02-24T12:39:10.584Z,9.93
2023-02-24T12:40:27.382Z,10.50
2023-02-24T12:41:40.356Z,10.60
2023-02-24T12:42:51.167Z,9.40
2023-02-24T12:43:59.908Z,9.67
2023-02-24T12:45:14.515Z,10.37
2023-02-24T12:46:24.321Z,11.17
2023-02-24T12:47:38.568Z,9.57
2023-02-24T12:49:15.312Z,10.07
2023-02-24T12:50:32.454Z,9.90
2023-02-24T12:51:42.765Z,10.47
2023-02-24T12:52:58.927Z,10.43
2023-02-24T12:54:10.150Z,10.47
2023-02-24T12:55:22.920Z,10.93
2023-02-24T12:56:28.038Z,10.53
2023-02-24T12:57:41.442Z,11.10
2023-02-24T12:58:49.441Z,10.53
2023-02-24T12:59:53.020Z,11.07
2023-02-24T13:01:06.743Z,10.30
2023-02-24T13:02:20.787Z,11.17
2023-02-24T13:03:36.699Z,10.33
2023-02-24T13:04:46.399Z,10.40
2023-02-24T13:05:57.073Z,10.77
2023-02-24T13:07:19.700Z,10.70
2023-02-24T13:08:31.159Z,10.07
2023-02-24T13:09:42.134Z,11.50
2023-02-24T13:10:49.675Z,11.07
2023-02-24T13:11:59.784Z,10.47
2023-02-24T13:13:11.436Z,10.50
2023-02-24T13:14:24.192Z,10.70
2023-02-24T13:15:31.369Z,10.13
2023-02-24T13:16:35.663Z,11.40
2023-02-24T13:17:48.047Z,9.97
2023-02-24T13:18:50.341Z,10.90
2023-02-24T13:19:55.873Z,10.13
2023-02-24T13:21:08.202Z,10.73
2023-02-24T13:22:26.661Z,10.53
2023-02-24T13:23:31.718Z,9.53
2023-02-24T13:24:36.680Z,9.87
2023-02-24T13:25:41.083Z,10.67
2023-02-24T13:26:43.378Z,10.57
2023-02-24T13:27:59.489Z,10.47
2023-02-24T13:29:03.707Z,10.20
2023-02-24T13:30:26.680Z,10.77
2023-02-24T13:31:42.635Z,11.90
2023-02-24T13:32:47.596Z,9.53
2023-02-24T13:33:52.609Z,10.50
2023-02-24T13:34:55.328Z,10.77
2023-02-24T13:36:14.373Z,10.13
2023-02-24T13:37:27.617Z,9.90
2023-02-24T13:38:37.867Z,10.40
2023-02-24T13:39:41.447Z,10.30
2023-02-24T13:40:44.507Z,10.20
2023-02-24T13:41:46.586Z,10.07
2023-02-24T13:43:00.041Z,10.13
2023-02-24T13:44:05.551Z,10.47
2023-02-24T13:45:20.896Z,9.57
2023-02-24T13:46:23.249Z,11.00
2023-02-24T13:47:56.600Z,10.93
2023-02-24T13:49:19.444Z,9.60
2023-02-24T13:50:25.577Z,9.93
2023-02-24T13:51:52.499Z,9.80
2023-02-24T13:53:23.680Z,10.63
2023-02-24T13:54:55.623Z,9.67
2023-02-24T13:56:21.476Z,10.43
2023-02-24T13:57:49.673Z,10.33
2023-02-24T13:59:14.493Z,10.27
2023-02-24T14:00:28.872Z,9.40
2023-02-24T14:01:45.514Z,10.00
2023-02-24T14:02:52.925Z,10.50
2023-02-24T14:04:06.818Z,10.67
2023-02-24T14:05:13.390Z,10.53
2023-02-24T14:06:21.879Z,10.73
2023-02-24T14:07:28.272Z,10.07
2023-02-24T14:08:40.285Z,10.40
2023-02-24T14:09:47.341Z,9.83
2023-02-24T14:10:54.191Z,10.80
2023-02-24T14:12:01.933Z,10.47
2023-02-24T14:13:08.581Z,10.87
2023-02-24T14:14:16.129Z,10.83
2023-02-24T14:15:25.092Z,11.20
2023-02-24T14:16:33.120Z,11.00
2023-02-24T14:17:36.945Z,11.73
2023-02-24T14:18:39.903Z,11.03
2023-02-24T14:19:41.973Z,11.33
2023-02-24T14:20:45.295Z,11.00
2023-02-24T14:21:51.038Z,10.73
2023-02-24T14:22:56.040Z,11.10
2023-02-24T14:24:00.722Z,10.37
2023-02-24T14:25:03.905Z,10.97
2023-02-24T14:26:09.664Z,9.70
2023-02-24T14:27:21.978Z,10.20
2023-02-24T14:28:29.731Z,10.37
2023-02-24T14:29:43.663Z,10.00
2023-02-24T14:30:54.325Z,10.67
2023-02-24T14:31:59.314Z,11.17
2023-02-24T14:33:03.781Z,10.70
2023-02-24T14:34:09.030Z,11.10
2023-02-24T14:35:19.977Z,10.40
2023-02-24T14:36:25.937Z,11.23
2023-02-24T14:37:31.938Z,11.03
2023-02-24T14:38:37.290Z,10.50
2023-02-24T14:39:39.422Z,10.53
2023-02-24T14:40:48.612Z,10.03
2023-02-24T14:41:52.283Z,10.50
2023-02-24T14:42:57.061Z,11.03
2023-02-24T14:44:08.366Z,10.10
2023-02-24T14:45:18.683Z,10.67
2023-02-24T14:46:22.549Z,10.27
2023-02-24T14:47:28.715Z,10.20
2023-02-24T14:48:32.600Z,10.50
2023-02-24T14:49:36.719Z,10.83
2023-02-24T14:50:39.899Z,9.80
2023-02-24T14:51:42.067Z,11.63
2023-02-24T14:52:49.775Z,11.30
2023-02-24T14:53:54.385Z,11.83
2023-02-24T14:55:03.305Z,10.80
2023-02-24T14:56:07.598Z,10.50
2023-02-24T14:57:12.907Z,10.50
2023-02-24T14:58:20.583Z,11.43
2023-02-24T14:59:29.579Z,11.93
2023-02-24T15:00:36.682Z,11.43
2023-02-24T15:01:44.417Z,10.57
2023-02-24T15:02:50.869Z,11.87
2023-02-24T15:03:58.069Z,12.57